Time;durP1;ratioP1;P1;durP2;ratioP2;P2;SDS_P1;SDS_P2;PMS_P1;PMS_P2;Temp;Humidity;BMP_temperature;BMP_pressure;BME280_temperature;BME280_humidity;BME280_pressure;Samples;Min_cycle;Max_cycle;Signal;HPM_P1;HPM_P2
2024/04/08 00:02:24;;;;;;;;;;;;;;;;;;5070200;28;19994;-75
2024/04/08 00:04:51;;;;;;;;;;;;;;;;;;5069385;28;19969;-75
2024/04/08 00:07:18;;;;;;;;;;;;;;;;;;5069596;28;19936;-74
2024/04/08 00:09:45;;;;;;;;;;;;;;;;;;5069616;28;19965;-75
2024/04/08 00:12:11;;;;;;;;;;;;;;;;;;5072472;28;20464;-75
2024/04/08 00:14:38;;;;;;;;;;;;;;;;;;5074661;28;19937;-75
2024/04/08 00:17:04;;;;;;;;;;;;;;;;;;5069590;28;19928;-75
2024/04/08 00:19:31;;;;;;;;;;;;;;;;;;5068311;28;20295;-76
2024/04/08 00:21:57;;;;;;;;;;;;;;;;;;5068113;28;20395;-75
2024/04/08 00:24:24;;;;;;;;;;;;;;;;;;5067390;28;19939;-76
2024/04/08 00:26:50;;;;;;;;;;;;;;;;;;5068213;28;19928;-75
2024/04/08 00:29:17;;;;;;;;;;;;;;;;;;5069431;28;20332;-75
2024/04/08 00:31:43;;;;;;;;;;;;;;;;;;5068784;28;19935;-75
2024/04/08 00:34:10;;;;;;;;;;;;;;;;;;5068864;28;19928;-75
2024/04/08 00:36:36;;;;;;;;;;;;;;;;;;5068668;28;19972;-76
2024/04/08 00:39:03;;;;;;;;;;;;;;;;;;5068479;28;19974;-75
2024/04/08 00:41:30;;;;;;;;;;;;;;;;;;5068894;28;19960;-76
2024/04/08 00:43:57;;;;;;;;;;;;;;;;;;5069245;28;19935;-75
2024/04/08 00:46:23;;;;;;;;;;;;;;;;;;5071426;28;19982;-75
2024/04/08 00:48:50;;;;;;;;;;;;;;;;;;5072048;28;20393;-75
2024/04/08 00:51:16;;;;;;;;;;;;;;;;;;5069976;28;20303;-75
2024/04/08 00:53:43;;;;;;;;;;;;;;;;;;5070876;28;19935;-75
2024/04/08 00:56:09;;;;;;;;;;;;;;;;;;5069558;28;20487;-75
2024/04/08 00:58:38;;;;;;;;;;;;;;;;;;5068825;28;19935;-75
2024/04/08 01:01:04;;;;;;;;;;;;;;;;;;5069037;28;19994;-76
2024/04/08 01:03:31;;;;;;;;;;;;;;;;;;5068985;28;20442;-75
2024/04/08 01:05:57;;;;;;;;;;;;;;;;;;5068985;28;19975;-75
2024/04/08 01:08:24;;;;;;;;;;;;;;;;;;5068610;28;19936;-75
2024/04/08 01:10:50;;;;;;;;;;;;;;;;;;5068424;28;19995;-75
2024/04/08 01:13:17;;;;;;;;;;;;;;;;;;5069024;28;20315;-74
2024/04/08 01:15:43;;;;;;;;;;;;;;;;;;5068530;28;19935;-74
2024/04/08 01:18:10;;;;;;;;;;;;;;;;;;5069136;28;20069;-75
2024/04/08 01:20:36;;;;;;;;;;;;;;;;;;5068405;28;19928;-76
2024/04/08 01:23:03;;;;;;;;;;;;;;;;;;5068999;28;19950;-74
2024/04/08 01:25:29;;;;;;;;;;;;;;;;;;5068834;28;19936;-74
2024/04/08 01:27:56;;;;;;;;;;;;;;;;;;5067948;28;19933;-75
2024/04/08 01:30:22;;;;;;;;;;;;;;;;;;5068752;28;19935;-74
2024/04/08 01:32:49;;;;;;;;;;;;;;;;;;5069383;28;19974;-74
2024/04/08 01:35:16;;;;;;;;;;;;;;;;;;5072479;28;19975;-76
2024/04/08 01:37:43;;;;;;;;;;;;;;;;;;5072829;28;20412;-75
2024/04/08 01:40:09;;;;;;;;;;;;;;;;;;5072309;28;19929;-75
2024/04/08 01:42:36;;;;;;;;;;;;;;;;;;5071825;28;19929;-75
2024/04/08 01:45:02;;;;;;;;;;;;;;;;;;5070860;28;19967;-75
2024/04/08 01:47:29;;;;;;;;;;;;;;;;;;5072493;28;20403;-74
2024/04/08 01:49:55;;;;;;;;;;;;;;;;;;5071930;28;19929;-75
2024/04/08 01:52:22;;;;;;;;;;;;;;;;;;5072320;28;19929;-75
2024/04/08 01:54:48;;;;;;;;;;;;;;;;;;5073395;28;19935;-75
2024/04/08 01:57:15;;;;;;;;;;;;;;;;;;5071674;28;19928;-74
2024/04/08 01:59:41;;;;;;;;;;;;;;;;;;5058933;28;19952;-74
2024/04/08 02:02:08;;;;;;;;;;;;;;;;;;5071780;28;19948;-75
2024/04/08 02:04:34;;;;;;;;;;;;;;;;;;5071659;28;19929;-74
2024/04/08 02:07:01;;;;;;;;;;;;;;;;;;5072302;28;19944;-75
2024/04/08 02:09:27;;;;;;;;;;;;;;;;;;5072526;28;19956;-75
2024/04/08 02:11:55;;;;;;;;;;;;;;;;;;5072393;28;19929;-74
2024/04/08 02:14:21;;;;;;;;;;;;;;;;;;5072948;28;19944;-74
2024/04/08 02:16:48;;;;;;;;;;;;;;;;;;5074093;28;19936;-75
2024/04/08 02:19:14;;;;;;;;;;;;;;;;;;5072839;28;19928;-75
2024/04/08 02:21:42;;;;;;;;;;;;;;;;;;5072688;28;19986;-74
2024/04/08 02:24:08;;;;;;;;;;;;;;;;;;5071513;28;19935;-75
2024/04/08 02:26:35;;;;;;;;;;;;;;;;;;5070159;28;19929;-74
2024/04/08 02:29:01;;;;;;;;;;;;;;;;;;5076211;28;19981;-74
2024/04/08 02:31:29;;;;;;;;;;;;;;;;;;5070192;28;19940;-74
2024/04/08 02:33:55;;;;;;;;;;;;;;;;;;5070646;28;19960;-75
2024/04/08 02:36:22;;;;;;;;;;;;;;;;;;5070159;28;19929;-75
2024/04/08 02:38:48;;;;;;;;;;;;;;;;;;5063869;28;19958;-74
2024/04/08 02:41:15;;;;;;;;;;;;;;;;;;5070193;28;19928;-76
2024/04/08 02:43:41;;;;;;;;;;;;;;;;;;5070685;28;20461;-75
2024/04/08 02:46:08;;;;;;;;;;;;;;;;;;5069440;28;19936;-74
2024/04/08 02:48:35;;;;;;;;;;;;;;;;;;5070419;28;19928;-75
2024/04/08 02:51:02;;;;;;;;;;;;;;;;;;5069796;28;19935;-75
2024/04/08 02:53:28;;;;;;;;;;;;;;;;;;5069637;28;20396;-75
2024/04/08 02:55:55;;;;;;;;;;;;;;;;;;5069316;28;19975;-74
2024/04/08 02:58:22;;;;;;;;;;;;;;;;;;5068626;28;19959;-75
2024/04/08 03:00:49;;;;;;;;;;;;;;;;;;5069630;28;19935;-76
2024/04/08 03:03:15;;;;;;;;;;;;;;;;;;5069198;28;19928;-75
2024/04/08 03:05:42;;;;;;;;;;;;;;;;;;5070061;28;19928;-75
2024/04/08 03:08:08;;;;;;;;;;;;;;;;;;5070940;28;19928;-75
2024/04/08 03:10:36;;;;;;;;;;;;;;;;;;5069895;28;19935;-76
2024/04/08 03:13:02;;;;;;;;;;;;;;;;;;5069604;28;19928;-75
2024/04/08 03:15:29;;;;;;;;;;;;;;;;;;5069423;28;19928;-76
2024/04/08 03:17:55;;;;;;;;;;;;;;;;;;5068973;28;20026;-75
2024/04/08 03:20:22;;;;;;;;;;;;;;;;;;5070697;28;19928;-75
2024/04/08 03:22:48;;;;;;;;;;;;;;;;;;5067153;28;20482;-75
2024/04/08 03:25:15;;;;;;;;;;;;;;;;;;5070010;28;20343;-74
2024/04/08 03:27:45;;;;;;;;;;;;;;;;;;5070352;28;19928;-75
2024/04/08 03:30:12;;;;;;;;;;;;;;;;;;5070070;28;19928;-76
2024/04/08 03:32:38;;;;;;;;;;;;;;;;;;5067258;28;19940;-72
2024/04/08 03:35:05;;;;;;;;;;;;;;;;;;5067667;28;19935;-72
2024/04/08 03:37:32;;;;;;;;;;;;;;;;;;5068276;28;19928;-72
2024/04/08 03:39:59;;;;;;;;;;;;;;;;;;5068010;28;19928;-72
2024/04/08 03:42:26;;;;;;;;;;;;;;;;;;5067942;28;19932;-72
2024/04/08 03:44:54;;;;;;;;;;;;;;;;;;5067957;28;20049;-72
2024/04/08 03:47:21;;;;;;;;;;;;;;;;;;5067866;28;19928;-72
2024/04/08 03:49:48;;;;;;;;;;;;;;;;;;5067156;28;20281;-72
2024/04/08 03:52:15;;;;;;;;;;;;;;;;;;5067659;28;19935;-72
2024/04/08 03:54:41;;;;;;;;;;;;;;;;;;5068314;28;19929;-72
2024/04/08 03:57:08;;;;;;;;;;;;;;;;;;5066742;28;20394;-73
2024/04/08 03:59:34;;;;;;;;;;;;;;;;;;5063434;28;19929;-73
2024/04/08 04:02:01;;;;;;;;;;;;;;;;;;5066669;28;19928;-72
2024/04/08 04:04:27;;;;;;;;;;;;;;;;;;5068616;28;20410;-73
2024/04/08 04:06:55;;;;;;;;;;;;;;;;;;5064417;28;19929;-73
2024/04/08 04:09:21;;;;;;;;;;;;;;;;;;5066760;28;19940;-73
2024/04/08 04:11:49;;;;;;;;;;;;;;;;;;5063006;28;19932;-72
2024/04/08 04:14:15;;;;;;;;;;;;;;;;;;5062543;28;19950;-74
2024/04/08 04:19:15;;;;;;;;;;;;;;;;;;5553606;25;19927;-71
2024/04/08 04:21:42;;;;;;;;;;;;;;;;;;5527407;25;19935;-72
2024/04/08 04:24:10;;;;;;;;;;;;;;;;;;5526284;25;19968;-71
2024/04/08 04:26:36;;;;;;;;;;;;;;;;;;5510270;25;19938;-71
2024/04/08 04:29:05;;;;;;;;;;;;;;;;;;5537683;25;19947;-72
2024/04/08 04:31:31;;;;;;;;;;;;;;;;;;5502033;26;19928;-72
2024/04/08 04:34:00;;;;;;;;;;;;;;;;;;5488156;26;19940;-71
2024/04/08 04:36:26;;;;;;;;;;;;;;;;;;5464298;26;19936;-72
2024/04/08 04:38:55;;;;;;;;;;;;;;;;;;5464935;26;19943;-72
2024/04/08 04:41:21;;;;;;;;;;;;;;;;;;5464843;26;19940;-72
2024/04/08 04:43:50;;;;;;;;;;;;;;;;;;5464790;26;19928;-72
2024/04/08 04:46:16;;;;;;;;;;;;;;;;;;5466230;26;19935;-70
2024/04/08 04:48:45;;;;;;;;;;;;;;;;;;5464998;26;20030;-71
2024/04/08 04:51:11;;;;;;;;;;;;;;;;;;5464534;26;19928;-72
2024/04/08 04:53:40;;;;;;;;;;;;;;;;;;5464482;26;19940;-72
2024/04/08 04:56:06;;;;;;;;;;;;;;;;;;5465112;26;19928;-72
2024/04/08 04:58:35;;;;;;;;;;;;;;;;;;5463942;26;19997;-72
2024/04/08 05:01:01;;;;;;;;;;;;;;;;;;5474552;26;20278;-72
2024/04/08 05:03:29;;;;;;;;;;;;;;;;;;5464623;26;19929;-72
2024/04/08 05:05:55;;;;;;;;;;;;;;;;;;5462878;26;19936;-72
2024/04/08 05:08:24;;;;;;;;;;;;;;;;;;5463507;26;19941;-72
2024/04/08 05:10:50;;;;;;;;;;;;;;;;;;5463047;26;19928;-72
2024/04/08 05:13:19;;;;;;;;;;;;;;;;;;5477206;26;19928;-72
2024/04/08 05:15:45;;;;;;;;;;;;;;;;;;5498882;26;19928;-72
2024/04/08 05:18:14;;;;;;;;;;;;;;;;;;5497552;26;20246;-72
2024/04/08 05:20:40;;;;;;;;;;;;;;;;;;5486783;26;19935;-72
2024/04/08 05:23:13;;;;;;;;;;;;;;;;;;5499373;26;19936;-72
2024/04/08 05:25:39;;;;;;;;;;;;;;;;;;5498936;26;19939;-72
2024/04/08 05:28:08;;;;;;;;;;;;;;;;;;5476717;26;19929;-71
2024/04/08 05:30:34;;;;;;;;;;;;;;;;;;5445512;26;19945;-73
2024/04/08 05:33:03;;;;;;;;;;;;;;;;;;5446144;26;19947;-73
2024/04/08 05:35:30;;;;;;;;;;;;;;;;;;5446698;26;19932;-73
2024/04/08 05:37:59;;;;;;;;;;;;;;;;;;5446960;26;19937;-73
2024/04/08 05:40:25;;;;;;;;;;;;;;;;;;5473926;26;19935;-73
2024/04/08 05:42:54;;;;;;;;;;;;;;;;;;5482583;26;19928;-73
2024/04/08 05:45:21;;;;;;;;;;;;;;;;;;5446373;26;19928;-73
2024/04/08 05:47:54;;;;;;;;;;;;;;;;;;5448149;26;19939;-73
2024/04/08 05:50:20;;;;;;;;;;;;;;;;;;5446230;26;19928;-72
2024/04/08 05:52:48;;;;;;;;;;;;;;;;;;5447007;26;20510;-73
2024/04/08 05:55:14;;;;;;;;;;;;;;;;;;5446957;26;19962;-73
2024/04/08 05:57:43;;;;;;;;;;;;;;;;;;5445927;26;19934;-72
2024/04/08 06:00:10;;;;;;;;;;;;;;;;;;5454736;26;19935;-72
2024/04/08 06:02:39;;;;;;;;;;;;;;;;;;5483738;26;19997;-72
2024/04/08 06:05:05;;;;;;;;;;;;;;;;;;5483430;26;19928;-71
2024/04/08 06:07:34;;;;;;;;;;;;;;;;;;5483576;26;20355;-71
2024/04/08 06:10:00;;;;;;;;;;;;;;;;;;5483316;26;19927;-71
2024/04/08 06:12:28;;;;;;;;;;;;;;;;;;5483750;26;20324;-71
2024/04/08 06:14:54;;;;;;;;;;;;;;;;;;5484091;26;19950;-71
2024/04/08 06:17:23;;;;;;;;;;;;;;;;;;5483631;26;20314;-71
2024/04/08 06:19:49;;;;;;;;;;;;;;;;;;5457562;26;19959;-71
2024/04/08 06:22:18;;;;;;;;;;;;;;;;;;5447629;26;20421;-71
2024/04/08 06:24:44;;;;;;;;;;;;;;;;;;5446934;26;19936;-71
2024/04/08 06:27:13;;;;;;;;;;;;;;;;;;5465318;26;20363;-71
2024/04/08 06:29:39;;;;;;;;;;;;;;;;;;5482507;26;19928;-73
2024/04/08 06:32:07;;;;;;;;;;;;;;;;;;5457846;26;19932;-72
2024/04/08 06:34:33;;;;;;;;;;;;;;;;;;5447289;26;20433;-72
2024/04/08 06:37:02;;;;;;;;;;;;;;;;;;5447820;26;19936;-71
2024/04/08 06:39:28;;;;;;;;;;;;;;;;;;5445349;26;20368;-70
2024/04/08 06:41:57;;;;;;;;;;;;;;;;;;5445182;26;19992;-71
2024/04/08 06:44:23;;;;;;;;;;;;;;;;;;5464933;26;19932;-71
2024/04/08 06:46:52;;;;;;;;;;;;;;;;;;5481772;26;20363;-71
2024/04/08 06:49:18;;;;;;;;;;;;;;;;;;5481197;26;19928;-71
2024/04/08 06:51:46;;;;;;;;;;;;;;;;;;5481126;26;19932;-71
2024/04/08 06:54:12;;;;;;;;;;;;;;;;;;5481139;26;19934;-71
2024/04/08 06:56:41;;;;;;;;;;;;;;;;;;5481209;26;19996;-71
2024/04/08 06:59:07;;;;;;;;;;;;;;;;;;5480417;26;19939;-72
2024/04/08 07:01:37;;;;;;;;;;;;;;;;;;5458676;26;19957;-71
2024/04/08 07:04:03;;;;;;;;;;;;;;;;;;5445103;26;19935;-71
2024/04/08 07:06:31;;;;;;;;;;;;;;;;;;5446251;26;19936;-71
2024/04/08 07:08:57;;;;;;;;;;;;;;;;;;5461653;26;19928;-72
2024/04/08 07:11:26;;;;;;;;;;;;;;;;;;5483447;26;19928;-71
2024/04/08 07:13:53;;;;;;;;;;;;;;;;;;5483085;26;19954;-72
2024/04/08 07:16:21;;;;;;;;;;;;;;;;;;5482819;26;19928;-71
2024/04/08 07:18:47;;;;;;;;;;;;;;;;;;5481131;26;19935;-73
2024/04/08 07:21:16;;;;;;;;;;;;;;;;;;5450816;26;19944;-71
2024/04/08 07:23:42;;;;;;;;;;;;;;;;;;5446697;26;19940;-71
2024/04/08 07:26:11;;;;;;;;;;;;;;;;;;5446760;26;19978;-71
2024/04/08 07:28:37;;;;;;;;;;;;;;;;;;5447113;26;19928;-72
2024/04/08 07:31:06;;;;;;;;;;;;;;;;;;5446095;26;20392;-71
2024/04/08 07:33:32;;;;;;;;;;;;;;;;;;5444877;26;20363;-72
2024/04/08 07:36:01;;;;;;;;;;;;;;;;;;5445412;26;19969;-71
2024/04/08 07:38:27;;;;;;;;;;;;;;;;;;5444405;26;19935;-72
2024/04/08 07:40:56;;;;;;;;;;;;;;;;;;5444482;26;19928;-72
2024/04/08 07:43:22;;;;;;;;;;;;;;;;;;5444218;26;20489;-71
2024/04/08 07:45:51;;;;;;;;;;;;;;;;;;5444274;26;19957;-71
2024/04/08 07:48:19;;;;;;;;;;;;;;;;;;5444006;26;20078;-72
2024/04/08 07:50:48;;;;;;;;;;;;;;;;;;5444135;26;19936;-72
2024/04/08 07:53:14;;;;;;;;;;;;;;;;;;5444500;26;20395;-72
2024/04/08 07:55:43;;;;;;;;;;;;;;;;;;5443635;26;19960;-73
2024/04/08 07:58:09;;;;;;;;;;;;;;;;;;5455039;26;19943;-72
2024/04/08 08:00:38;;;;;;;;;;;;;;;;;;5480217;26;19932;-72
2024/04/08 08:03:04;;;;;;;;;;;;;;;;;;5480085;26;20373;-72
2024/04/08 08:05:33;;;;;;;;;;;;;;;;;;5480111;26;19932;-72
2024/04/08 08:07:59;;;;;;;;;;;;;;;;;;5479887;26;19928;-72
2024/04/08 08:10:28;;;;;;;;;;;;;;;;;;5478898;26;19928;-72
2024/04/08 08:12:57;;;;;;;;;;;;;;;;;;5480577;26;20353;-72
2024/04/08 08:15:25;;;;;;;;;;;;;;;;;;5463952;26;20354;-72
2024/04/08 08:17:54;;;;;;;;;;;;;;;;;;5444046;26;20368;-72
2024/04/08 08:20:23;;;;;;;;;;;;;;;;;;5444033;26;19928;-72
2024/04/08 08:22:56;;;;;;;;;;;;;;;;;;5445109;26;19940;-72
2024/04/08 08:25:25;;;;;;;;;;;;;;;;;;5481182;26;20263;-72
2024/04/08 08:27:54;;;;;;;;;;;;;;;;;;5482142;26;19943;-73
2024/04/08 08:30:22;;;;;;;;;;;;;;;;;;5482874;26;19935;-72
2024/04/08 08:32:52;;;;;;;;;;;;;;;;;;5482541;26;19935;-72
2024/04/08 08:35:18;;;;;;;;;;;;;;;;;;5482331;26;19928;-74
2024/04/08 08:37:47;;;;;;;;;;;;;;;;;;5482463;26;19936;-72
2024/04/08 08:40:13;;;;;;;;;;;;;;;;;;5481712;26;19927;-71
2024/04/08 08:42:42;;;;;;;;;;;;;;;;;;5480561;26;20370;-72
2024/04/08 08:45:08;;;;;;;;;;;;;;;;;;5481972;26;19928;-71
2024/04/08 08:47:37;;;;;;;;;;;;;;;;;;5482797;26;19928;-73
2024/04/08 08:50:03;;;;;;;;;;;;;;;;;;5482122;26;19928;-71
2024/04/08 08:52:31;;;;;;;;;;;;;;;;;;5481993;26;19928;-72
2024/04/08 08:54:57;;;;;;;;;;;;;;;;;;5481642;26;20029;-71
2024/04/08 08:57:27;;;;;;;;;;;;;;;;;;5481023;26;19931;-72
2024/04/08 08:59:53;;;;;;;;;;;;;;;;;;5468773;26;19950;-73
2024/04/08 09:02:21;;;;;;;;;;;;;;;;;;5444301;26;19928;-73
2024/04/08 09:04:47;;;;;;;;;;;;;;;;;;5444245;26;19929;-72
2024/04/08 09:07:16;;;;;;;;;;;;;;;;;;5477085;26;19928;-72
2024/04/08 09:09:42;;;;;;;;;;;;;;;;;;5483656;26;19939;-72
2024/04/08 09:12:11;;;;;;;;;;;;;;;;;;5483362;26;20395;-72
2024/04/08 09:14:37;;;;;;;;;;;;;;;;;;5482987;26;19935;-73
2024/04/08 09:17:06;;;;;;;;;;;;;;;;;;5481770;26;19939;-72
2024/04/08 09:19:32;;;;;;;;;;;;;;;;;;5475562;26;19936;-73
2024/04/08 09:22:00;;;;;;;;;;;;;;;;;;5445804;26;19973;-72
2024/04/08 09:24:26;;;;;;;;;;;;;;;;;;5446127;26;19928;-72
2024/04/08 09:26:55;;;;;;;;;;;;;;;;;;5445831;26;19929;-72
2024/04/08 09:29:21;;;;;;;;;;;;;;;;;;5446315;26;19939;-73
2024/04/08 09:31:50;;;;;;;;;;;;;;;;;;5464427;26;19928;-73
2024/04/08 09:34:16;;;;;;;;;;;;;;;;;;5464402;26;19939;-72
2024/04/08 09:36:45;;;;;;;;;;;;;;;;;;5446433;26;19964;-72
2024/04/08 09:39:11;;;;;;;;;;;;;;;;;;5446086;26;19928;-72
2024/04/08 09:41:39;;;;;;;;;;;;;;;;;;5446373;26;19936;-73
2024/04/08 09:44:05;;;;;;;;;;;;;;;;;;5446687;26;19928;-72
2024/04/08 09:46:34;;;;;;;;;;;;;;;;;;5447128;26;19928;-72
2024/04/08 09:49:00;;;;;;;;;;;;;;;;;;5447868;26;19963;-71
2024/04/08 09:51:29;;;;;;;;;;;;;;;;;;5449206;26;20011;-71
2024/04/08 09:53:55;;;;;;;;;;;;;;;;;;5448195;26;19958;-71
2024/04/08 09:56:24;;;;;;;;;;;;;;;;;;5467380;26;19931;-72
2024/04/08 09:58:50;;;;;;;;;;;;;;;;;;5483542;26;19928;-72
2024/04/08 10:01:19;;;;;;;;;;;;;;;;;;5484238;26;19947;-72
2024/04/08 10:03:45;;;;;;;;;;;;;;;;;;5484019;26;19936;-72
2024/04/08 10:06:13;;;;;;;;;;;;;;;;;;5484435;26;19928;-72
2024/04/08 10:08:39;;;;;;;;;;;;;;;;;;5482950;26;19928;-71
2024/04/08 10:11:08;;;;;;;;;;;;;;;;;;5478076;26;20001;-71
2024/04/08 10:13:34;;;;;;;;;;;;;;;;;;5447610;26;19935;-71
2024/04/08 10:16:03;;;;;;;;;;;;;;;;;;5446508;26;19932;-71
2024/04/08 10:18:29;;;;;;;;;;;;;;;;;;5446697;26;19929;-71
2024/04/08 10:20:58;;;;;;;;;;;;;;;;;;5474353;26;20358;-70
2024/04/08 10:23:24;;;;;;;;;;;;;;;;;;5483024;26;20335;-70
2024/04/08 10:25:52;;;;;;;;;;;;;;;;;;5481302;26;19927;-71
2024/04/08 10:28:19;;;;;;;;;;;;;;;;;;5481572;26;20371;-72
2024/04/08 10:30:47;;;;;;;;;;;;;;;;;;5481847;26;20391;-72
2024/04/08 10:33:13;;;;;;;;;;;;;;;;;;5481916;26;19928;-72
2024/04/08 10:35:42;;;;;;;;;;;;;;;;;;5482110;26;20022;-71
2024/04/08 10:38:08;;;;;;;;;;;;;;;;;;5482000;26;19928;-72
2024/04/08 10:40:38;;;;;;;;;;;;;;;;;;5482067;26;19928;-72
2024/04/08 10:43:04;;;;;;;;;;;;;;;;;;5480022;26;19927;-72
2024/04/08 10:45:33;;;;;;;;;;;;;;;;;;5481841;26;19952;-72
2024/04/08 10:47:59;;;;;;;;;;;;;;;;;;5481378;26;19938;-72
2024/04/08 10:50:28;;;;;;;;;;;;;;;;;;5481072;26;19928;-72
2024/04/08 10:52:54;;;;;;;;;;;;;;;;;;5481658;26;20421;-73
2024/04/08 10:55:22;;;;;;;;;;;;;;;;;;5482582;26;20001;-72
2024/04/08 10:57:48;;;;;;;;;;;;;;;;;;5481651;26;19928;-72
2024/04/08 11:00:17;;;;;;;;;;;;;;;;;;5449539;26;19944;-72
2024/04/08 11:02:43;;;;;;;;;;;;;;;;;;5465437;26;19928;-73
2024/04/08 11:05:12;;;;;;;;;;;;;;;;;;5481242;26;20488;-73
2024/04/08 11:07:38;;;;;;;;;;;;;;;;;;5481489;26;19935;-72
2024/04/08 11:10:07;;;;;;;;;;;;;;;;;;5481890;26;19969;-72
2024/04/08 11:12:33;;;;;;;;;;;;;;;;;;5483311;26;19954;-72
2024/04/08 11:15:02;;;;;;;;;;;;;;;;;;5483579;26;19932;-72
2024/04/08 11:17:28;;;;;;;;;;;;;;;;;;5482378;26;19932;-72
2024/04/08 11:19:57;;;;;;;;;;;;;;;;;;5470362;26;20270;-72
2024/04/08 11:22:23;;;;;;;;;;;;;;;;;;5446599;26;19937;-72
2024/04/08 11:24:52;;;;;;;;;;;;;;;;;;5445990;26;19937;-72
2024/04/08 11:27:18;;;;;;;;;;;;;;;;;;5443794;26;19928;-73
2024/04/08 11:29:47;;;;;;;;;;;;;;;;;;5444554;26;19928;-72
2024/04/08 11:32:13;;;;;;;;;;;;;;;;;;5446359;26;19932;-72
2024/04/08 11:34:42;;;;;;;;;;;;;;;;;;5444803;26;20383;-72
2024/04/08 11:37:09;;;;;;;;;;;;;;;;;;5444734;26;20268;-72
2024/04/08 11:39:38;;;;;;;;;;;;;;;;;;5444456;26;19953;-73
2024/04/08 11:42:04;;;;;;;;;;;;;;;;;;5444606;26;19928;-72
2024/04/08 11:44:33;;;;;;;;;;;;;;;;;;5444437;26;20271;-73
2024/04/08 11:46:59;;;;;;;;;;;;;;;;;;5444889;26;20459;-72
2024/04/08 11:49:28;;;;;;;;;;;;;;;;;;5445832;26;19928;-72
2024/04/08 11:51:54;;;;;;;;;;;;;;;;;;5444194;26;19928;-73
2024/04/08 11:54:23;;;;;;;;;;;;;;;;;;5470993;26;19959;-72
2024/04/08 11:56:49;;;;;;;;;;;;;;;;;;5480425;26;19935;-71
2024/04/08 11:59:18;;;;;;;;;;;;;;;;;;5480325;26;19928;-72
2024/04/08 12:01:44;;;;;;;;;;;;;;;;;;5480411;26;19940;-72
2024/04/08 12:04:13;;;;;;;;;;;;;;;;;;5480843;26;19928;-72
2024/04/08 12:06:39;;;;;;;;;;;;;;;;;;5471593;26;19936;-73
2024/04/08 12:09:08;;;;;;;;;;;;;;;;;;5444457;26;19936;-73
2024/04/08 12:11:34;;;;;;;;;;;;;;;;;;5444159;26;19944;-72
2024/04/08 12:14:03;;;;;;;;;;;;;;;;;;5444130;26;20278;-73
2024/04/08 12:16:29;;;;;;;;;;;;;;;;;;5443895;26;20019;-72
2024/04/08 12:18:58;;;;;;;;;;;;;;;;;;5443408;26;19944;-71
2024/04/08 12:21:24;;;;;;;;;;;;;;;;;;5479331;26;20446;-72
2024/04/08 12:23:54;;;;;;;;;;;;;;;;;;5478499;26;19934;-72
2024/04/08 12:26:20;;;;;;;;;;;;;;;;;;5479606;26;19932;-72
2024/04/08 12:28:49;;;;;;;;;;;;;;;;;;5480419;26;20260;-73
2024/04/08 12:31:15;;;;;;;;;;;;;;;;;;5471184;26;19929;-72
2024/04/08 12:33:44;;;;;;;;;;;;;;;;;;5443623;26;20059;-72
2024/04/08 12:36:10;;;;;;;;;;;;;;;;;;5443689;26;19933;-71
2024/04/08 12:38:38;;;;;;;;;;;;;;;;;;5444848;26;19936;-73
2024/04/08 12:41:05;;;;;;;;;;;;;;;;;;5447972;26;20035;-72
2024/04/08 12:43:34;;;;;;;;;;;;;;;;;;5446589;26;19935;-73
2024/04/08 12:46:00;;;;;;;;;;;;;;;;;;5447099;26;19936;-73
2024/04/08 12:48:29;;;;;;;;;;;;;;;;;;5447689;26;19928;-72
2024/04/08 12:50:55;;;;;;;;;;;;;;;;;;5449279;26;19928;-72
2024/04/08 12:53:24;;;;;;;;;;;;;;;;;;5477350;26;19952;-73
2024/04/08 12:55:50;;;;;;;;;;;;;;;;;;5485141;26;19928;-73
2024/04/08 12:58:19;;;;;;;;;;;;;;;;;;5484674;26;19940;-70
2024/04/08 13:00:45;;;;;;;;;;;;;;;;;;5484581;26;19934;-71
2024/04/08 13:03:14;;;;;;;;;;;;;;;;;;5486214;26;19928;-71
2024/04/08 13:05:40;;;;;;;;;;;;;;;;;;5459226;26;19933;-71
2024/04/08 13:08:08;;;;;;;;;;;;;;;;;;5449100;26;19932;-72
2024/04/08 13:10:34;;;;;;;;;;;;;;;;;;5448513;26;19929;-71
2024/04/08 13:13:03;;;;;;;;;;;;;;;;;;5448559;26;20263;-72
2024/04/08 13:15:29;;;;;;;;;;;;;;;;;;5448506;26;19935;-71
2024/04/08 13:17:58;;;;;;;;;;;;;;;;;;5446629;26;20013;-72
2024/04/08 13:20:24;;;;;;;;;;;;;;;;;;5467741;26;20020;-72
2024/04/08 13:22:53;;;;;;;;;;;;;;;;;;5482657;26;20304;-71
2024/04/08 13:25:20;;;;;;;;;;;;;;;;;;5483063;26;19960;-71
2024/04/08 13:27:49;;;;;;;;;;;;;;;;;;5482824;26;19939;-73
2024/04/08 13:30:15;;;;;;;;;;;;;;;;;;5482877;26;19940;-72
2024/04/08 13:32:44;;;;;;;;;;;;;;;;;;5481451;26;20400;-72
2024/04/08 13:35:10;;;;;;;;;;;;;;;;;;5483139;26;19935;-71
2024/04/08 13:37:38;;;;;;;;;;;;;;;;;;5482485;26;19928;-73
2024/04/08 13:40:05;;;;;;;;;;;;;;;;;;5482037;26;20387;-72
2024/04/08 13:42:34;;;;;;;;;;;;;;;;;;5482482;26;20379;-72
2024/04/08 13:45:00;;;;;;;;;;;;;;;;;;5482447;26;19962;-72
2024/04/08 13:47:28;;;;;;;;;;;;;;;;;;5482728;26;19932;-72
2024/04/08 13:49:55;;;;;;;;;;;;;;;;;;5479729;26;19927;-72
2024/04/08 13:52:23;;;;;;;;;;;;;;;;;;5481805;26;19944;-72
2024/04/08 13:54:49;;;;;;;;;;;;;;;;;;5482537;26;19928;-72
2024/04/08 13:57:18;;;;;;;;;;;;;;;;;;5483739;26;19960;-72
2024/04/08 13:59:44;;;;;;;;;;;;;;;;;;5484097;26;19928;-71
2024/04/08 14:02:13;;;;;;;;;;;;;;;;;;5484498;26;20381;-72
2024/04/08 14:04:39;;;;;;;;;;;;;;;;;;5484004;26;19934;-72
2024/04/08 14:07:08;;;;;;;;;;;;;;;;;;5482017;26;19956;-72
2024/04/08 14:09:34;;;;;;;;;;;;;;;;;;5483584;26;19935;-71
2024/04/08 14:12:03;;;;;;;;;;;;;;;;;;5461471;26;19976;-72
2024/04/08 14:14:29;;;;;;;;;;;;;;;;;;5447706;26;19929;-72
2024/04/08 14:16:59;;;;;;;;;;;;;;;;;;5447201;26;19929;-72
2024/04/08 14:19:25;;;;;;;;;;;;;;;;;;5447698;26;19981;-72
2024/04/08 14:21:54;;;;;;;;;;;;;;;;;;5447760;26;19928;-72
2024/04/08 14:24:20;;;;;;;;;;;;;;;;;;5481429;26;19928;-72
2024/04/08 14:26:48;;;;;;;;;;;;;;;;;;5483653;26;19999;-71
2024/04/08 14:29:14;;;;;;;;;;;;;;;;;;5483724;26;20367;-72
2024/04/08 14:31:43;;;;;;;;;;;;;;;;;;5483865;26;19940;-72
2024/04/08 14:34:09;;;;;;;;;;;;;;;;;;5483652;26;20474;-72
2024/04/08 14:36:38;;;;;;;;;;;;;;;;;;5483686;26;20212;-73
2024/04/08 14:39:04;;;;;;;;;;;;;;;;;;5482945;26;19931;-73
2024/04/08 14:41:33;;;;;;;;;;;;;;;;;;5448095;26;20024;-74
2024/04/08 14:43:59;;;;;;;;;;;;;;;;;;5447060;26;19928;-73
2024/04/08 14:46:27;;;;;;;;;;;;;;;;;;5447728;26;20470;-73
2024/04/08 14:48:53;;;;;;;;;;;;;;;;;;5447585;26;19935;-73
2024/04/08 14:51:22;;;;;;;;;;;;;;;;;;5447503;26;19929;-73
2024/04/08 14:53:48;;;;;;;;;;;;;;;;;;5460805;26;19938;-72
2024/04/08 14:56:19;;;;;;;;;;;;;;;;;;5482026;26;19935;-73
2024/04/08 14:58:46;;;;;;;;;;;;;;;;;;5483640;26;20251;-73
2024/04/08 15:01:14;;;;;;;;;;;;;;;;;;5476046;26;19936;-74
2024/04/08 15:03:40;;;;;;;;;;;;;;;;;;5445820;26;19929;-73
2024/04/08 15:06:09;;;;;;;;;;;;;;;;;;5447056;26;20419;-73
2024/04/08 15:08:35;;;;;;;;;;;;;;;;;;5446425;26;19928;-72
2024/04/08 15:11:04;;;;;;;;;;;;;;;;;;5447382;26;20424;-73
2024/04/08 15:13:31;;;;;;;;;;;;;;;;;;5448489;26;19935;-73
2024/04/08 15:15:59;;;;;;;;;;;;;;;;;;5447335;26;20445;-73
2024/04/08 15:18:25;;;;;;;;;;;;;;;;;;5446908;26;19935;-73
2024/04/08 15:20:54;;;;;;;;;;;;;;;;;;5473848;26;19935;-73
2024/04/08 15:23:21;;;;;;;;;;;;;;;;;;5482851;26;20447;-74
2024/04/08 15:25:49;;;;;;;;;;;;;;;;;;5482959;26;19928;-73
2024/04/08 15:28:15;;;;;;;;;;;;;;;;;;5482588;26;19928;-74
2024/04/08 15:30:44;;;;;;;;;;;;;;;;;;5481144;26;19981;-73
2024/04/08 15:33:10;;;;;;;;;;;;;;;;;;5446682;26;19928;-72
2024/04/08 15:35:39;;;;;;;;;;;;;;;;;;5445961;26;19936;-73
2024/04/08 15:38:05;;;;;;;;;;;;;;;;;;5446770;26;19928;-73
2024/04/08 15:40:33;;;;;;;;;;;;;;;;;;5446410;26;19932;-73
2024/04/08 15:43:00;;;;;;;;;;;;;;;;;;5446248;26;19929;-74
2024/04/08 15:45:28;;;;;;;;;;;;;;;;;;5446344;26;19938;-74
2024/04/08 15:47:54;;;;;;;;;;;;;;;;;;5453787;26;19928;-73
2024/04/08 15:50:23;;;;;;;;;;;;;;;;;;5482852;26;20381;-74
2024/04/08 15:52:49;;;;;;;;;;;;;;;;;;5483394;26;20460;-73
2024/04/08 15:55:18;;;;;;;;;;;;;;;;;;5482564;26;19939;-72
2024/04/08 15:57:44;;;;;;;;;;;;;;;;;;5481942;26;20367;-73
2024/04/08 16:00:13;;;;;;;;;;;;;;;;;;5482932;26;19996;-73
2024/04/08 16:02:39;;;;;;;;;;;;;;;;;;5483221;26;19938;-72
2024/04/08 16:05:07;;;;;;;;;;;;;;;;;;5468042;26;19989;-74
2024/04/08 16:07:34;;;;;;;;;;;;;;;;;;5446291;26;19929;-73
2024/04/08 16:10:03;;;;;;;;;;;;;;;;;;5446304;26;19982;-73
2024/04/08 16:12:29;;;;;;;;;;;;;;;;;;5445900;26;19932;-72
2024/04/08 16:14:58;;;;;;;;;;;;;;;;;;5446079;26;19928;-73
2024/04/08 16:17:24;;;;;;;;;;;;;;;;;;5446194;26;19928;-73
2024/04/08 16:19:53;;;;;;;;;;;;;;;;;;5458108;26;19962;-72
2024/04/08 16:22:19;;;;;;;;;;;;;;;;;;5481486;26;19928;-73
2024/04/08 16:24:47;;;;;;;;;;;;;;;;;;5481910;26;19928;-74
2024/04/08 16:27:13;;;;;;;;;;;;;;;;;;5481489;26;20375;-73
2024/04/08 16:29:42;;;;;;;;;;;;;;;;;;5482598;26;19932;-73
2024/04/08 16:32:08;;;;;;;;;;;;;;;;;;5481930;26;20383;-73
2024/04/08 16:34:37;;;;;;;;;;;;;;;;;;5482552;26;19995;-73
2024/04/08 16:37:05;;;;;;;;;;;;;;;;;;5481939;26;20019;-73
2024/04/08 16:39:33;;;;;;;;;;;;;;;;;;5480352;26;19932;-72
2024/04/08 16:41:59;;;;;;;;;;;;;;;;;;5481883;26;19931;-73
2024/04/08 16:44:28;;;;;;;;;;;;;;;;;;5481570;26;19935;-72
2024/04/08 16:46:54;;;;;;;;;;;;;;;;;;5481644;26;19956;-73
2024/04/08 16:49:24;;;;;;;;;;;;;;;;;;5481606;26;20403;-73